Time;durP1;ratioP1;P1;durP2;ratioP2;P2;SDS_P1;SDS_P2;PMS_P1;PMS_P2;Temp;Humidity;BMP_temperature;BMP_pressure;BME280_temperature;BME280_humidity;BME280_pressure;Samples;Min_cycle;Max_cycle;Signal;HPM_P1;HPM_P2
2023/07/22 00:02:18;;;;;;;1.98;1.88;;;;;;;;;;5120490;28;20234;-62
2023/07/22 00:04:46;;;;;;;2.05;1.92;;;;;;;;;;5120620;28;20218;-63
2023/07/22 00:07:13;;;;;;;2.22;2.00;;;;;;;;;;5120506;28;20203;-62
2023/07/22 00:09:41;;;;;;;2.20;2.00;;;;;;;;;;5120648;28;20218;-63
2023/07/22 00:12:10;;;;;;;3.72;2.28;;;;;;;;;;5120049;28;20253;-63
2023/07/22 00:14:40;;;;;;;2.50;2.30;;;;;;;;;;5119797;28;20221;-62
2023/07/22 00:17:08;;;;;;;2.10;2.00;;;;;;;;;;5120209;28;20203;-63
2023/07/22 00:19:37;;;;;;;2.30;1.98;;;;;;;;;;5120680;28;20267;-63
2023/07/22 00:22:05;;;;;;;2.90;2.00;;;;;;;;;;5112040;28;20618;-63
2023/07/22 00:24:33;;;;;;;1.92;1.83;;;;;;;;;;5119723;28;20203;-63
2023/07/22 00:27:01;;;;;;;1.95;1.85;;;;;;;;;;5119403;28;20215;-63
2023/07/22 00:29:28;;;;;;;1.80;1.70;;;;;;;;;;5119413;28;20213;-63
2023/07/22 00:31:56;;;;;;;2.88;2.10;;;;;;;;;;5119544;28;20203;-63
2023/07/22 00:34:24;;;;;;;2.33;1.90;;;;;;;;;;5118092;28;20239;-63
2023/07/22 00:36:53;;;;;;;2.72;1.90;;;;;;;;;;5119555;28;20203;-63
2023/07/22 00:39:21;;;;;;;3.50;2.00;;;;;;;;;;5119988;28;20474;-62
2023/07/22 00:41:49;;;;;;;2.50;2.05;;;;;;;;;;5119681;28;20214;-63
2023/07/22 00:44:16;;;;;;;2.55;1.90;;;;;;;;;;5119272;28;20216;-62
2023/07/22 00:46:44;;;;;;;2.42;2.20;;;;;;;;;;5119833;28;20516;-62
2023/07/22 00:49:12;;;;;;;1.92;1.80;;;;;;;;;;5119754;28;20211;-62
2023/07/22 00:51:39;;;;;;;3.08;2.15;;;;;;;;;;5118805;28;20203;-62
2023/07/22 00:54:09;;;;;;;1.90;1.70;;;;;;;;;;5119667;28;20199;-63
2023/07/22 00:56:38;;;;;;;2.05;1.95;;;;;;;;;;5119477;28;20209;-62
2023/07/22 00:59:05;;;;;;;1.83;1.70;;;;;;;;;;5119177;28;20662;-63
2023/07/22 01:01:33;;;;;;;1.90;1.80;;;;;;;;;;5119524;28;20488;-62
2023/07/22 01:04:01;;;;;;;2.08;1.88;;;;;;;;;;5119141;28;20292;-63
2023/07/22 01:06:30;;;;;;;2.10;1.90;;;;;;;;;;5119460;28;20247;-62
2023/07/22 01:08:59;;;;;;;3.10;1.92;;;;;;;;;;5119407;28;20482;-62
2023/07/22 01:11:28;;;;;;;2.45;2.25;;;;;;;;;;5119208;28;20202;-63
2023/07/22 01:13:59;;;;;;;2.25;2.10;;;;;;;;;;5119474;28;20199;-63
2023/07/22 01:16:27;;;;;;;2.90;2.10;;;;;;;;;;5118962;28;20541;-62
2023/07/22 01:18:55;;;;;;;1.98;1.83;;;;;;;;;;5119117;28;20493;-62
2023/07/22 01:21:24;;;;;;;2.20;1.90;;;;;;;;;;5119454;28;20203;-62
2023/07/22 01:23:54;;;;;;;2.20;1.90;;;;;;;;;;5119263;28;20693;-62
2023/07/22 01:26:21;;;;;;;3.78;1.92;;;;;;;;;;5119126;28;20211;-62
2023/07/22 01:28:49;;;;;;;2.42;1.77;;;;;;;;;;5118665;28;20227;-63
2023/07/22 01:31:16;;;;;;;2.25;1.88;;;;;;;;;;5118742;28;20203;-63
2023/07/22 01:33:44;;;;;;;4.03;2.00;;;;;;;;;;5119002;28;20199;-63
2023/07/22 01:36:12;;;;;;;2.00;1.90;;;;;;;;;;5119501;28;20267;-63
2023/07/22 01:38:40;;;;;;;2.25;1.80;;;;;;;;;;5118939;28;20210;-63
2023/07/22 01:41:09;;;;;;;2.10;1.90;;;;;;;;;;5118455;28;20207;-63
2023/07/22 01:43:36;;;;;;;1.85;1.73;;;;;;;;;;5118402;28;20222;-63
2023/07/22 01:46:04;;;;;;;2.75;1.95;;;;;;;;;;5118399;28;20203;-62
2023/07/22 01:48:32;;;;;;;2.03;1.90;;;;;;;;;;5118782;28;20222;-63
2023/07/22 01:50:59;;;;;;;2.38;1.80;;;;;;;;;;5118293;28;20217;-62
2023/07/22 01:53:27;;;;;;;2.33;1.80;;;;;;;;;;5118610;28;20214;-62
2023/07/22 01:55:54;;;;;;;2.95;2.20;;;;;;;;;;5118517;28;20213;-63
2023/07/22 01:58:24;;;;;;;1.90;1.80;;;;;;;;;;5118681;28;20217;-63
2023/07/22 02:00:51;;;;;;;2.03;1.80;;;;;;;;;;5118497;28;20264;-63
2023/07/22 02:03:20;;;;;;;2.22;1.85;;;;;;;;;;5118665;28;20227;-63
2023/07/22 02:05:48;;;;;;;1.95;1.80;;;;;;;;;;5118759;28;20216;-63
2023/07/22 02:08:15;;;;;;;2.45;1.73;;;;;;;;;;5118475;28;20202;-63
2023/07/22 02:10:43;;;;;;;2.90;1.85;;;;;;;;;;5118604;28;20614;-62
2023/07/22 02:13:11;;;;;;;2.42;1.80;;;;;;;;;;5118070;28;20252;-63
2023/07/22 02:15:40;;;;;;;2.90;1.75;;;;;;;;;;5118022;28;20226;-63
2023/07/22 02:18:07;;;;;;;2.15;1.80;;;;;;;;;;5118391;28;20253;-62
2023/07/22 02:20:35;;;;;;;3.00;1.92;;;;;;;;;;5118524;28;20226;-63
2023/07/22 02:23:03;;;;;;;1.92;1.80;;;;;;;;;;5117998;28;20360;-62
2023/07/22 02:25:31;;;;;;;1.75;1.65;;;;;;;;;;5117971;28;20643;-63
2023/07/22 02:27:58;;;;;;;2.15;1.80;;;;;;;;;;5118233;28;20203;-62
2023/07/22 02:30:26;;;;;;;2.10;1.90;;;;;;;;;;5118285;28;20264;-62
2023/07/22 02:32:56;;;;;;;2.00;1.83;;;;;;;;;;5118406;28;20217;-63
2023/07/22 02:35:24;;;;;;;2.00;1.80;;;;;;;;;;5118512;28;20338;-63
2023/07/22 02:37:51;;;;;;;2.22;2.00;;;;;;;;;;5120366;28;20253;-63
2023/07/22 02:40:19;;;;;;;2.15;1.95;;;;;;;;;;5122877;28;20207;-63
2023/07/22 02:42:47;;;;;;;2.88;1.90;;;;;;;;;;5122514;28;20222;-63
2023/07/22 02:45:15;;;;;;;2.60;1.80;;;;;;;;;;5122482;28;20210;-63
2023/07/22 02:47:43;;;;;;;2.05;1.92;;;;;;;;;;5122485;28;20202;-63
2023/07/22 02:50:15;;;;;;;3.30;2.00;;;;;;;;;;5122572;28;20540;-63
2023/07/22 02:52:43;;;;;;;2.58;1.70;;;;;;;;;;5122048;28;20250;-63
2023/07/22 02:55:11;;;;;;;1.80;1.70;;;;;;;;;;5121932;28;20207;-63
2023/07/22 02:57:40;;;;;;;1.85;1.75;;;;;;;;;;5121754;28;20235;-63
2023/07/22 03:00:08;;;;;;;2.10;2.00;;;;;;;;;;5121747;28;20209;-63
2023/07/22 03:02:36;;;;;;;3.17;2.00;;;;;;;;;;5121955;28;20211;-64
2023/07/22 03:05:07;;;;;;;1.88;1.77;;;;;;;;;;5121795;28;20237;-63
2023/07/22 03:07:37;;;;;;;2.95;1.98;;;;;;;;;;5121954;28;20211;-63
2023/07/22 03:10:05;;;;;;;2.00;1.90;;;;;;;;;;5120997;28;20209;-64
2023/07/22 03:12:36;;;;;;;2.30;2.10;;;;;;;;;;5121816;28;20505;-63
2023/07/22 03:15:05;;;;;;;2.40;1.98;;;;;;;;;;5121390;28;20210;-63
2023/07/22 03:17:32;;;;;;;2.40;1.92;;;;;;;;;;5121683;28;20207;-63
2023/07/22 03:20:00;;;;;;;2.95;2.10;;;;;;;;;;5121748;28;20218;-63
2023/07/22 03:22:28;;;;;;;2.38;2.15;;;;;;;;;;5121510;28;20206;-63
2023/07/22 03:24:57;;;;;;;2.47;2.28;;;;;;;;;;5121567;28;20321;-63
2023/07/22 03:27:26;;;;;;;2.50;2.30;;;;;;;;;;5121401;28;20229;-63
2023/07/22 03:29:53;;;;;;;2.40;2.20;;;;;;;;;;5121446;28;20255;-63
2023/07/22 03:32:21;;;;;;;2.92;2.28;;;;;;;;;;5121197;28;20203;-63
2023/07/22 03:34:49;;;;;;;2.30;2.20;;;;;;;;;;5121262;28;20230;-63
2023/07/22 03:37:17;;;;;;;2.40;2.17;;;;;;;;;;5121061;28;20211;-63
2023/07/22 03:39:44;;;;;;;2.20;1.92;;;;;;;;;;5120676;28;20234;-63
2023/07/22 03:42:14;;;;;;;1.83;1.73;;;;;;;;;;5120541;28;20243;-63
2023/07/22 03:44:42;;;;;;;2.22;1.80;;;;;;;;;;5120784;28;20237;-63
2023/07/22 03:47:10;;;;;;;2.65;1.95;;;;;;;;;;5120970;28;20725;-63
2023/07/22 03:49:37;;;;;;;2.03;1.80;;;;;;;;;;5119550;28;20560;-63
2023/07/22 03:52:06;;;;;;;2.30;2.10;;;;;;;;;;5120479;28;20250;-63
2023/07/22 03:54:33;;;;;;;2.13;1.92;;;;;;;;;;5120220;28;20260;-63
2023/07/22 03:57:00;;;;;;;2.05;1.90;;;;;;;;;;5121240;28;20260;-63
2023/07/22 03:59:29;;;;;;;2.05;1.88;;;;;;;;;;5120917;28;20204;-63
2023/07/22 04:01:57;;;;;;;2.15;1.63;;;;;;;;;;5120879;28;20297;-63
2023/07/22 04:04:24;;;;;;;2.45;1.70;;;;;;;;;;5120842;28;20284;-63
2023/07/22 04:06:51;;;;;;;1.75;1.65;;;;;;;;;;5120530;28;20203;-63
2023/07/22 04:09:19;;;;;;;2.00;1.70;;;;;;;;;;5120559;28;20582;-63
2023/07/22 04:11:46;;;;;;;1.92;1.73;;;;;;;;;;5120794;28;20214;-63
2023/07/22 04:14:14;;;;;;;2.65;1.77;;;;;;;;;;5120865;28;20234;-63
2023/07/22 04:16:43;;;;;;;1.70;1.60;;;;;;;;;;5120366;28;20252;-63
2023/07/22 04:19:10;;;;;;;1.75;1.65;;;;;;;;;;5120226;28;20210;-63
2023/07/22 04:21:38;;;;;;;2.67;1.95;;;;;;;;;;5119958;28;20283;-63
2023/07/22 04:24:06;;;;;;;1.75;1.65;;;;;;;;;;5120113;28;20288;-63
2023/07/22 04:26:34;;;;;;;2.15;1.95;;;;;;;;;;5120172;28;20211;-63
2023/07/22 04:29:01;;;;;;;2.17;1.98;;;;;;;;;;5120113;28;20267;-63
2023/07/22 04:31:28;;;;;;;3.65;1.83;;;;;;;;;;5110734;28;20303;-63
2023/07/22 04:33:59;;;;;;;2.10;1.90;;;;;;;;;;5099575;28;20235;-63
2023/07/22 04:36:26;;;;;;;2.22;2.03;;;;;;;;;;5091240;28;20203;-63
2023/07/22 04:38:54;;;;;;;1.80;1.70;;;;;;;;;;5099721;28;20204;-63
2023/07/22 04:41:21;;;;;;;2.10;1.92;;;;;;;;;;5099688;28;20203;-63
2023/07/22 04:43:50;;;;;;;2.10;1.90;;;;;;;;;;5099416;28;20314;-63
2023/07/22 04:46:17;;;;;;;2.72;2.03;;;;;;;;;;5099444;28;20204;-63
2023/07/22 04:48:45;;;;;;;2.92;1.98;;;;;;;;;;5097589;28;20302;-63
2023/07/22 04:51:14;;;;;;;2.30;1.92;;;;;;;;;;5098947;28;20235;-63
2023/07/22 04:53:41;;;;;;;2.58;1.85;;;;;;;;;;5098651;28;20226;-63
2023/07/22 04:56:08;;;;;;;2.10;2.00;;;;;;;;;;5099366;28;20210;-63
2023/07/22 04:58:36;;;;;;;2.00;1.90;;;;;;;;;;5099120;28;20203;-63
2023/07/22 05:01:04;;;;;;;2.40;1.90;;;;;;;;;;5098223;28;20208;-63
2023/07/22 05:03:31;;;;;;;1.98;1.88;;;;;;;;;;5099029;28;20224;-63
2023/07/22 05:05:58;;;;;;;2.72;1.98;;;;;;;;;;5098069;28;20204;-63
2023/07/22 05:08:27;;;;;;;3.15;2.20;;;;;;;;;;5098823;28;20235;-63
2023/07/22 05:10:55;;;;;;;2.72;2.47;;;;;;;;;;5099142;28;20235;-63
2023/07/22 05:13:22;;;;;;;2.47;2.28;;;;;;;;;;5099236;28;20467;-63
2023/07/22 05:15:49;;;;;;;2.58;2.22;;;;;;;;;;5098399;28;20215;-63
2023/07/22 05:18:17;;;;;;;2.35;2.17;;;;;;;;;;5098593;28;20587;-63
2023/07/22 05:20:45;;;;;;;2.55;2.35;;;;;;;;;;5098245;28;20226;-63
2023/07/22 05:23:13;;;;;;;2.67;2.40;;;;;;;;;;5098499;28;20238;-63
2023/07/22 05:25:42;;;;;;;2.50;2.30;;;;;;;;;;5098376;28;20276;-63
2023/07/22 05:28:09;;;;;;;2.28;2.10;;;;;;;;;;5098708;28;20202;-63
2023/07/22 05:30:37;;;;;;;2.60;2.38;;;;;;;;;;5097789;28;20213;-63
2023/07/22 05:33:04;;;;;;;2.90;2.42;;;;;;;;;;5098389;28;20214;-63
2023/07/22 05:35:31;;;;;;;2.67;2.47;;;;;;;;;;5098164;28;20300;-63
2023/07/22 05:37:59;;;;;;;2.58;2.35;;;;;;;;;;5098830;28;20265;-63
2023/07/22 05:40:28;;;;;;;2.80;2.60;;;;;;;;;;5098089;28;20204;-63
2023/07/22 05:42:56;;;;;;;2.70;2.50;;;;;;;;;;5097714;28;20278;-63
2023/07/22 05:45:24;;;;;;;2.53;2.33;;;;;;;;;;5098678;28;20231;-63
2023/07/22 05:47:51;;;;;;;3.13;2.63;;;;;;;;;;5098127;28;20271;-63
2023/07/22 05:50:19;;;;;;;2.80;2.60;;;;;;;;;;5098077;28;20253;-63
2023/07/22 05:52:47;;;;;;;2.72;2.53;;;;;;;;;;5098225;28;20290;-63
2023/07/22 05:55:15;;;;;;;3.10;2.80;;;;;;;;;;5097864;28;20200;-63
2023/07/22 05:57:43;;;;;;;3.00;2.70;;;;;;;;;;5098138;28;20235;-63
2023/07/22 06:00:13;;;;;;;2.75;2.55;;;;;;;;;;5098063;28;20203;-63
2023/07/22 06:02:40;;;;;;;3.05;2.63;;;;;;;;;;5098337;28;20278;-63
2023/07/22 06:05:08;;;;;;;3.72;3.08;;;;;;;;;;5098157;28;20249;-63
2023/07/22 06:07:36;;;;;;;3.00;2.80;;;;;;;;;;5097521;28;20256;-63
2023/07/22 06:10:04;;;;;;;3.10;2.90;;;;;;;;;;5094383;28;20203;-63
2023/07/22 06:12:31;;;;;;;4.00;3.70;;;;;;;;;;5092295;28;20257;-63
2023/07/22 06:14:59;;;;;;;3.90;3.53;;;;;;;;;;5098277;28;20292;-63
2023/07/22 06:17:27;;;;;;;4.20;3.80;;;;;;;;;;5097894;28;20246;-63
2023/07/22 06:19:55;;;;;;;5.32;4.68;;;;;;;;;;5097708;28;20207;-63
2023/07/22 06:22:23;;;;;;;5.22;4.82;;;;;;;;;;5097091;28;20217;-63
2023/07/22 06:24:50;;;;;;;4.40;4.00;;;;;;;;;;5089156;28;20228;-63
2023/07/22 06:27:17;;;;;;;4.72;4.32;;;;;;;;;;5097274;28;20247;-63
2023/07/22 06:29:45;;;;;;;5.00;4.57;;;;;;;;;;5096788;28;20203;-63
2023/07/22 06:32:12;;;;;;;4.78;4.30;;;;;;;;;;5097336;28;20203;-63
2023/07/22 06:34:42;;;;;;;5.18;4.68;;;;;;;;;;5096855;28;20326;-63
2023/07/22 06:37:09;;;;;;;5.05;4.65;;;;;;;;;;5097284;28;20226;-63
2023/07/22 06:39:36;;;;;;;4.60;4.20;;;;;;;;;;5097013;28;20242;-63
2023/07/22 06:42:04;;;;;;;5.90;5.40;;;;;;;;;;5097713;28;20239;-63
2023/07/22 06:44:31;;;;;;;5.25;4.75;;;;;;;;;;5097270;28;20318;-63
2023/07/22 06:46:59;;;;;;;5.70;5.22;;;;;;;;;;5096908;28;20647;-63
2023/07/22 06:49:26;;;;;;;5.13;4.72;;;;;;;;;;5097064;28;20564;-63
2023/07/22 06:51:55;;;;;;;5.43;4.93;;;;;;;;;;5097438;28;20238;-63
2023/07/22 06:54:22;;;;;;;5.93;5.43;;;;;;;;;;5097015;28;20236;-63
2023/07/22 06:56:50;;;;;;;5.65;5.15;;;;;;;;;;5097438;28;20204;-63
2023/07/22 06:59:17;;;;;;;5.47;4.93;;;;;;;;;;5096730;28;20250;-64
2023/07/22 07:01:45;;;;;;;6.10;5.60;;;;;;;;;;5096681;28;20261;-63
2023/07/22 07:04:12;;;;;;;5.20;4.70;;;;;;;;;;5096109;28;20251;-63
2023/07/22 07:06:40;;;;;;;5.28;4.88;;;;;;;;;;5096999;28;20235;-63
2023/07/22 07:09:09;;;;;;;5.18;4.70;;;;;;;;;;5097217;28;20544;-63
2023/07/22 07:11:36;;;;;;;5.28;4.78;;;;;;;;;;5096563;28;20568;-63
2023/07/22 07:14:04;;;;;;;5.68;4.32;;;;;;;;;;5096675;28;20235;-63
2023/07/22 07:16:33;;;;;;;5.60;5.05;;;;;;;;;;5096970;28;20210;-63
2023/07/22 07:19:01;;;;;;;5.05;4.55;;;;;;;;;;5096131;28;20654;-63
2023/07/22 07:21:29;;;;;;;6.40;4.32;;;;;;;;;;5096718;28;20246;-63
2023/07/22 07:23:56;;;;;;;5.00;4.60;;;;;;;;;;5097631;28;20544;-63
2023/07/22 07:26:25;;;;;;;5.07;4.68;;;;;;;;;;5099772;28;20607;-63
2023/07/22 07:28:53;;;;;;;5.20;4.63;;;;;;;;;;5099868;28;20203;-63
2023/07/22 07:31:21;;;;;;;5.65;4.90;;;;;;;;;;5099716;28;20204;-63
2023/07/22 07:33:48;;;;;;;4.78;4.38;;;;;;;;;;5099703;28;20295;-63
2023/07/22 07:36:16;;;;;;;5.30;4.80;;;;;;;;;;5100224;28;20203;-63
2023/07/22 07:38:43;;;;;;;4.93;4.45;;;;;;;;;;5100208;28;20262;-63
2023/07/22 07:41:12;;;;;;;4.57;4.28;;;;;;;;;;5099705;28;20302;-63
2023/07/22 07:43:41;;;;;;;5.00;4.50;;;;;;;;;;5099314;28;20259;-63
2023/07/22 07:46:17;;;;;;;4.55;3.90;;;;;;;;;;5099161;28;20234;-63
2023/07/22 07:48:45;;;;;;;4.35;3.95;;;;;;;;;;5098961;28;20203;-63
2023/07/22 07:51:13;;;;;;;4.43;4.03;;;;;;;;;;5099077;28;20199;-63
2023/07/22 07:53:40;;;;;;;4.20;3.90;;;;;;;;;;5098916;28;20280;-63
2023/07/22 07:56:08;;;;;;;4.70;4.03;;;;;;;;;;5099093;28;20578;-63
2023/07/22 07:58:36;;;;;;;4.60;4.20;;;;;;;;;;5098993;28;20230;-63
2023/07/22 08:01:05;;;;;;;3.83;3.53;;;;;;;;;;5099153;28;20216;-64
2023/07/22 08:03:32;;;;;;;4.10;3.75;;;;;;;;;;5098796;28;20286;-63
2023/07/22 08:06:00;;;;;;;4.28;3.97;;;;;;;;;;5098437;28;20638;-63
2023/07/22 08:08:27;;;;;;;4.15;3.75;;;;;;;;;;5099289;28;20257;-63
2023/07/22 08:11:02;;;;;;;4.13;3.83;;;;;;;;;;5097968;28;20598;-63
2023/07/22 08:13:31;;;;;;;3.90;3.60;;;;;;;;;;5099191;28;20213;-63
2023/07/22 08:15:58;;;;;;;3.75;3.45;;;;;;;;;;5099544;28;20210;-63
2023/07/22 08:18:27;;;;;;;3.33;3.13;;;;;;;;;;5098389;28;20200;-63
2023/07/22 08:20:55;;;;;;;4.00;3.70;;;;;;;;;;5098301;28;20265;-64
2023/07/22 08:23:23;;;;;;;3.85;3.55;;;;;;;;;;5098368;28;20210;-63
2023/07/22 08:25:50;;;;;;;4.18;3.78;;;;;;;;;;5098594;28;20255;-63
2023/07/22 08:28:18;;;;;;;3.53;3.30;;;;;;;;;;5098655;28;20204;-64
2023/07/22 08:30:48;;;;;;;3.80;3.38;;;;;;;;;;5098366;28;20246;-63
2023/07/22 08:33:16;;;;;;;3.53;3.22;;;;;;;;;;5098610;28;20211;-63
2023/07/22 08:35:47;;;;;;;3.60;3.40;;;;;;;;;;5097451;28;20615;-63
2023/07/22 08:38:16;;;;;;;4.07;3.67;;;;;;;;;;5098215;28;20646;-63
2023/07/22 08:40:43;;;;;;;3.40;3.10;;;;;;;;;;5089462;28;20211;-63
2023/07/22 08:43:11;;;;;;;3.47;3.20;;;;;;;;;;5097866;28;20262;-63
2023/07/22 08:45:40;;;;;;;3.75;3.20;;;;;;;;;;5098121;28;20319;-63
2023/07/22 08:48:09;;;;;;;3.60;3.30;;;;;;;;;;5097412;28;20243;-63
2023/07/22 08:50:43;;;;;;;3.67;3.38;;;;;;;;;;5097211;28;20280;-63
2023/07/22 08:53:13;;;;;;;3.40;3.10;;;;;;;;;;5097419;28;20204;-63
2023/07/22 08:55:41;;;;;;;3.33;3.00;;;;;;;;;;5097815;28;20225;-63
2023/07/22 08:58:10;;;;;;;3.20;2.90;;;;;;;;;;5097645;28;20304;-63
2023/07/22 09:00:37;;;;;;;3.90;3.50;;;;;;;;;;5098350;28;20203;-63
2023/07/22 09:03:05;;;;;;;3.20;2.92;;;;;;;;;;5098319;28;20247;-63
2023/07/22 09:05:33;;;;;;;3.08;2.78;;;;;;;;;;5097863;28;20478;-64
2023/07/22 09:08:03;;;;;;;3.10;2.90;;;;;;;;;;5097986;28;20211;-63
2023/07/22 09:10:32;;;;;;;3.20;3.00;;;;;;;;;;5097695;28;20341;-63
2023/07/22 09:13:01;;;;;;;3.20;2.90;;;;;;;;;;5097867;28;20298;-63
2023/07/22 09:15:29;;;;;;;3.03;2.83;;;;;;;;;;5097710;28;20199;-63
2023/07/22 09:17:56;;;;;;;3.15;2.90;;;;;;;;;;5097675;28;20294;-63
2023/07/22 09:20:24;;;;;;;3.30;3.00;;;;;;;;;;5097907;28;20283;-63
2023/07/22 09:22:51;;;;;;;3.05;2.80;;;;;;;;;;5098185;28;20262;-63
2023/07/22 09:25:20;;;;;;;3.60;3.30;;;;;;;;;;5098347;28;20560;-63
2023/07/22 09:27:49;;;;;;;3.25;2.97;;;;;;;;;;5096957;28;20203;-63
2023/07/22 09:30:23;;;;;;;3.60;2.97;;;;;;;;;;5096360;28;20199;-63
2023/07/22 09:32:51;;;;;;;3.15;2.85;;;;;;;;;;5096095;28;20729;-63
2023/07/22 09:35:18;;;;;;;3.65;3.35;;;;;;;;;;5096158;28;20231;-63
2023/07/22 09:37:46;;;;;;;3.50;3.20;;;;;;;;;;5097083;28;20207;-63
2023/07/22 09:40:20;;;;;;;3.67;3.38;;;;;;;;;;5097109;28;20249;-63
2023/07/22 09:42:50;;;;;;;3.17;2.97;;;;;;;;;;5096213;28;20204;-63
2023/07/22 09:45:17;;;;;;;3.40;3.00;;;;;;;;;;5096158;28;20273;-63
2023/07/22 09:47:46;;;;;;;4.00;3.35;;;;;;;;;;5096519;28;20207;-63
2023/07/22 09:50:14;;;;;;;3.45;3.20;;;;;;;;;;5096051;28;20294;-63
2023/07/22 09:52:48;;;;;;;3.05;2.78;;;;;;;;;;5096445;28;20599;-66
2023/07/22 09:55:19;;;;;;;3.55;3.25;;;;;;;;;;5096953;28;20358;-63
2023/07/22 09:57:48;;;;;;;3.08;2.88;;;;;;;;;;5096710;28;20286;-63
2023/07/22 10:00:19;;;;;;;3.70;3.40;;;;;;;;;;5096925;28;20203;-63
2023/07/22 10:02:50;;;;;;;3.10;2.75;;;;;;;;;;5096226;28;20242;-63
2023/07/22 10:05:18;;;;;;;4.55;3.30;;;;;;;;;;5096310;28;20227;-63
2023/07/22 10:07:47;;;;;;;3.28;3.05;;;;;;;;;;5097465;28;20203;-63
2023/07/22 10:10:16;;;;;;;3.75;3.10;;;;;;;;;;5096608;28;20217;-64
2023/07/22 10:12:44;;;;;;;2.90;2.70;;;;;;;;;;5096584;28;20535;-63
2023/07/22 10:15:12;;;;;;;3.08;2.80;;;;;;;;;;5096193;28;20654;-63
2023/07/22 10:17:41;;;;;;;3.40;3.20;;;;;;;;;;5096786;28;20200;-63
2023/07/22 10:20:14;;;;;;;3.15;2.80;;;;;;;;;;5096545;28;20203;-63
2023/07/22 10:22:42;;;;;;;3.55;3.25;;;;;;;;;;5095817;28;20652;-63
2023/07/22 10:25:12;;;;;;;3.17;2.97;;;;;;;;;;5096456;28;20621;-63
2023/07/22 10:27:41;;;;;;;3.28;2.90;;;;;;;;;;5096188;28;20206;-63
2023/07/22 10:30:09;;;;;;;3.47;3.17;;;;;;;;;;5096051;28;20216;-63
2023/07/22 10:32:41;;;;;;;3.30;3.00;;;;;;;;;;5096432;28;20208;-63
2023/07/22 10:35:12;;;;;;;3.40;3.10;;;;;;;;;;5096277;28;20242;-63
2023/07/22 10:37:41;;;;;;;3.20;3.00;;;;;;;;;;5096261;28;20239;-63
2023/07/22 10:40:19;;;;;;;3.88;3.20;;;;;;;;;;5096759;28;20214;-63
2023/07/22 10:42:53;;;;;;;4.22;3.30;;;;;;;;;;5095993;28;20204;-63
2023/07/22 10:45:28;;;;;;;3.67;3.38;;;;;;;;;;5095962;28;20231;-63
2023/07/22 10:48:07;;;;;;;3.75;3.35;;;;;;;;;;5096405;28;20211;-63
2023/07/22 10:50:42;;;;;;;3.78;3.22;;;;;;;;;;5095797;28;20268;-63
2023/07/22 10:53:13;;;;;;;3.28;3.08;;;;;;;;;;5096089;28;20241;-62
2023/07/22 10:56:11;;;;;;;3.90;3.60;;;;;;;;;;5095734;28;20261;-63
2023/07/22 10:58:53;;;;;;;4.18;3.22;;;;;;;;;;5034134;28;20198;-63
2023/07/22 11:01:27;;;;;;;4.22;3.50;;;;;;;;;;5092671;28;20256;-62
2023/07/22 11:04:10;;;;;;;3.88;3.58;;;;;;;;;;5100151;28;20195;-63
2023/07/22 11:06:38;;;;;;;4.57;3.70;;;;;;;;;;5098957;28;20289;-62
2023/07/22 11:09:06;;;;;;;4.05;3.70;;;;;;;;;;5099595;28;20211;-63
2023/07/22 11:11:38;;;;;;;4.40;4.03;;;;;;;;;;5099013;28;20199;-62
2023/07/22 11:14:15;;;;;;;4.18;3.88;;;;;;;;;;5099367;28;20211;-63
2023/07/22 11:16:44;;;;;;;4.35;4.00;;;;;;;;;;5099813;28;20486;-62
2023/07/22 11:19:12;;;;;;;3.88;3.58;;;;;;;;;;5099332;28;20276;-62
2023/07/22 11:21:40;;;;;;;4.25;3.95;;;;;;;;;;5091230;28;20208;-62
2023/07/22 11:24:08;;;;;;;3.90;3.60;;;;;;;;;;5098715;28;20294;-62
2023/07/22 11:26:35;;;;;;;4.10;3.80;;;;;;;;;;5099655;28;20223;-63
2023/07/22 11:29:03;;;;;;;3.90;3.60;;;;;;;;;;5099181;28;20203;-62
2023/07/22 11:31:36;;;;;;;4.05;3.75;;;;;;;;;;5099550;28;20214;-63
2023/07/22 11:34:04;;;;;;;4.47;4.13;;;;;;;;;;5095468;28;20228;-63
2023/07/22 11:36:35;;;;;;;3.92;3.63;;;;;;;;;;5094522;28;20234;-63
2023/07/22 11:39:03;;;;;;;4.63;3.88;;;;;;;;;;5099070;28;20610;-62
2023/07/22 11:41:31;;;;;;;4.47;3.97;;;;;;;;;;5098797;28;20203;-63
2023/07/22 11:43:59;;;;;;;4.10;3.80;;;;;;;;;;5099264;28;20203;-63
2023/07/22 11:46:27;;;;;;;3.92;3.63;;;;;;;;;;5099813;28;20627;-63
2023/07/22 11:48:55;;;;;;;4.93;4.45;;;;;;;;;;5090590;28;20206;-62
2023/07/22 11:51:22;;;;;;;3.85;3.55;;;;;;;;;;5098669;28;20243;-63
2023/07/22 11:53:51;;;;;;;4.40;4.00;;;;;;;;;;5098498;28;20246;-63
2023/07/22 11:56:27;;;;;;;4.53;4.13;;;;;;;;;;5098152;28;20238;-63
2023/07/22 11:58:55;;;;;;;4.18;3.78;;;;;;;;;;5098947;28;20214;-63
2023/07/22 12:01:23;;;;;;;4.43;3.63;;;;;;;;;;5092636;28;20247;-62
2023/07/22 12:03:51;;;;;;;4.53;4.13;;;;;;;;;;5096516;28;20226;-63
2023/07/22 12:06:19;;;;;;;4.28;3.88;;;;;;;;;;5097864;28;20308;-63
2023/07/22 12:08:48;;;;;;;4.85;4.43;;;;;;;;;;5097693;28;20273;-63
2023/07/22 12:11:20;;;;;;;4.18;3.88;;;;;;;;;;5096747;28;20239;-62
2023/07/22 12:13:50;;;;;;;4.43;4.03;;;;;;;;;;5097731;28;20246;-63
2023/07/22 12:16:23;;;;;;;4.38;3.97;;;;;;;;;;5089798;28;20473;-63
2023/07/22 12:18:51;;;;;;;5.30;4.22;;;;;;;;;;5097224;28;20199;-63
2023/07/22 12:21:18;;;;;;;4.82;4.32;;;;;;;;;;5098900;28;20564;-62
2023/07/22 12:23:47;;;;;;;4.70;4.30;;;;;;;;;;5098273;28;20203;-63
2023/07/22 12:26:15;;;;;;;4.40;4.03;;;;;;;;;;5097175;28;20239;-63
2023/07/22 12:28:44;;;;;;;4.82;4.43;;;;;;;;;;5089523;28;20255;-63
2023/07/22 12:31:11;;;;;;;4.60;4.18;;;;;;;;;;5098094;28;20527;-62
2023/07/22 12:33:39;;;;;;;4.85;4.45;;;;;;;;;;5096901;28;20204;-63
2023/07/22 12:36:06;;;;;;;4.00;3.70;;;;;;;;;;5097026;28;20191;-63
2023/07/22 12:38:34;;;;;;;4.65;4.00;;;;;;;;;;5097473;28;20312;-63
2023/07/22 12:41:02;;;;;;;4.10;3.78;;;;;;;;;;5094502;28;20254;-63
2023/07/22 12:43:29;;;;;;;4.55;4.15;;;;;;;;;;5092164;28;20680;-63
2023/07/22 12:45:58;;;;;;;4.22;3.83;;;;;;;;;;5097235;28;20282;-63
2023/07/22 12:48:25;;;;;;;4.45;4.05;;;;;;;;;;5097556;28;20217;-63
2023/07/22 12:50:53;;;;;;;4.07;3.70;;;;;;;;;;5096977;28;20298;-62
2023/07/22 12:53:20;;;;;;;4.32;3.92;;;;;;;;;;5096523;28;20246;-62
2023/07/22 12:55:48;;;;;;;4.07;3.78;;;;;;;;;;5088153;28;20200;-63
2023/07/22 12:58:16;;;;;;;4.50;4.10;;;;;;;;;;5097593;28;20235;-62
2023/07/22 13:00:43;;;;;;;4.57;4.15;;;;;;;;;;5097256;28;20203;-63
2023/07/22 13:03:12;;;;;;;4.07;3.75;;;;;;;;;;5097292;28;20818;-62
2023/07/22 13:05:39;;;;;;;5.30;4.00;;;;;;;;;;5096576;28;20295;-63
2023/07/22 13:08:18;;;;;;;4.45;4.00;;;;;;;;;;5089032;28;20607;-63
2023/07/22 13:10:47;;;;;;;4.18;3.78;;;;;;;;;;5096146;28;20299;-63
2023/07/22 13:13:14;;;;;;;3.72;3.42;;;;;;;;;;5096759;28;20208;-62
2023/07/22 13:15:42;;;;;;;3.72;3.42;;;;;;;;;;5096256;28;20215;-63
2023/07/22 13:18:09;;;;;;;4.43;3.90;;;;;;;;;;5096429;28;20203;-63
2023/07/22 13:20:38;;;;;;;4.18;3.78;;;;;;;;;;5096293;28;20239;-62
2023/07/22 13:23:05;;;;;;;4.70;4.00;;;;;;;;;;5096629;28;20196;-63
2023/07/22 13:25:33;;;;;;;4.13;3.80;;;;;;;;;;5096226;28;20235;-63
2023/07/22 13:28:00;;;;;;;4.30;3.97;;;;;;;;;;5096234;28;20249;-63
2023/07/22 13:30:27;;;;;;;4.10;3.80;;;;;;;;;;5096150;28;20247;-62
2023/07/22 13:32:56;;;;;;;3.92;3.63;;;;;;;;;;5095471;28;20357;-62
2023/07/22 13:35:23;;;;;;;4.20;3.80;;;;;;;;;;5089095;28;20315;-63
2023/07/22 13:37:52;;;;;;;3.78;3.47;;;;;;;;;;5093499;28;20235;-62
2023/07/22 13:40:20;;;;;;;4.30;3.90;;;;;;;;;;5096451;28;20206;-62
2023/07/22 13:42:48;;;;;;;3.97;3.67;;;;;;;;;;5095500;28;20470;-62
2023/07/22 13:45:16;;;;;;;3.88;3.58;;;;;;;;;;5096162;28;20301;-63
2023/07/22 13:47:43;;;;;;;4.18;3.78;;;;;;;;;;5095800;28;20224;-62
2023/07/22 13:50:11;;;;;;;4.18;3.78;;;;;;;;;;5096098;28;20246;-62
2023/07/22 13:52:40;;;;;;;4.05;3.72;;;;;;;;;;5095921;28;20235;-62
2023/07/22 13:55:09;;;;;;;4.35;3.95;;;;;;;;;;5096666;28;20214;-63
2023/07/22 13:57:37;;;;;;;4.45;4.07;;;;;;;;;;5096743;28;20286;-63
2023/07/22 14:00:08;;;;;;;4.38;3.85;;;;;;;;;;5095559;28;20230;-62
2023/07/22 14:02:35;;;;;;;5.07;4.03;;;;;;;;;;5096267;28;20243;-63
2023/07/22 14:05:03;;;;;;;4.20;3.90;;;;;;;;;;5095779;28;20252;-62
2023/07/22 14:07:30;;;;;;;4.47;4.07;;;;;;;;;;5096304;28;20266;-62
2023/07/22 14:09:58;;;;;;;4.43;3.88;;;;;;;;;;5096023;28;20239;-63
2023/07/22 14:12:27;;;;;;;3.67;3.38;;;;;;;;;;5095350;28;20258;-62
2023/07/22 14:14:54;;;;;;;3.90;3.60;;;;;;;;;;5095549;28;20204;-62
2023/07/22 14:17:22;;;;;;;3.88;3.58;;;;;;;;;;5095644;28;20199;-62
2023/07/22 14:19:49;;;;;;;4.45;4.05;;;;;;;;;;5096563;28;20306;-63
2023/07/22 14:22:16;;;;;;;4.10;3.80;;;;;;;;;;5096229;28;20204;-62
2023/07/22 14:24:44;;;;;;;4.20;3.85;;;;;;;;;;5095941;28;20203;-63
2023/07/22 14:27:12;;;;;;;4.20;3.80;;;;;;;;;;5095533;28;20265;-63
2023/07/22 14:29:40;;;;;;;4.13;3.78;;;;;;;;;;5094901;28;20250;-63
2023/07/22 14:32:08;;;;;;;4.05;3.75;;;;;;;;;;5096096;28;20298;-63
2023/07/22 14:34:36;;;;;;;4.43;4.03;;;;;;;;;;5098613;28;20626;-63
2023/07/22 14:37:04;;;;;;;5.22;4.10;;;;;;;;;;5099972;28;20199;-63
2023/07/22 14:39:32;;;;;;;4.00;3.67;;;;;;;;;;5099932;28;20203;-63
2023/07/22 14:42:00;;;;;;;4.05;3.65;;;;;;;;;;5096488;28;20209;-62
2023/07/22 14:44:51;;;;;;;3.92;3.63;;;;;;;;;;5093784;28;20203;-63
2023/07/22 14:47:19;;;;;;;4.28;3.88;;;;;;;;;;5099180;28;20233;-63
2023/07/22 14:49:46;;;;;;;4.45;3.95;;;;;;;;;;5099244;28;20200;-62
2023/07/22 14:52:14;;;;;;;4.10;3.70;;;;;;;;;;5099744;28;20206;-63